createdAt,value
2022-12-25T00:02:21.705Z,78.48
2022-12-25T00:04:48.720Z,78.46
2022-12-25T00:07:15.328Z,78.37
2022-12-25T00:09:42.203Z,78.54
2022-12-25T00:12:08.885Z,78.46
2022-12-25T00:14:35.563Z,78.38
2022-12-25T00:17:02.304Z,78.48
2022-12-25T00:19:28.850Z,78.45
2022-12-25T00:21:55.538Z,78.42
2022-12-25T00:24:22.172Z,78.25
2022-12-25T00:26:48.748Z,78.38
2022-12-25T00:29:15.443Z,78.12
2022-12-25T00:31:42.223Z,78.34
2022-12-25T00:34:08.942Z,78.22
2022-12-25T00:36:41.422Z,78.28
2022-12-25T00:39:08.741Z,78.38
2022-12-25T00:41:54.021Z,78.39
2022-12-25T00:44:20.865Z,78.67
2022-12-25T00:46:47.536Z,78.85
2022-12-25T00:49:14.175Z,78.91
2022-12-25T00:51:40.811Z,78.99
2022-12-25T00:54:07.734Z,79.11
2022-12-25T00:56:34.693Z,78.74
2022-12-25T00:59:01.395Z,78.79
2022-12-25T01:01:28.174Z,78.77
2022-12-25T01:03:55.143Z,78.92
2022-12-25T01:06:21.754Z,79.01
2022-12-25T01:09:06.738Z,78.51
2022-12-25T01:11:33.573Z,78.51
2022-12-25T01:14:00.390Z,78.38
2022-12-25T01:16:27.366Z,78.30
2022-12-25T01:18:54.666Z,78.09
2022-12-25T01:21:22.150Z,78.05
2022-12-25T01:23:51.899Z,78.04
2022-12-25T01:26:21.163Z,78.16
2022-12-25T01:28:48.790Z,77.81
2022-12-25T01:31:18.551Z,77.81
2022-12-25T01:33:46.132Z,77.76
2022-12-25T01:36:24.368Z,77.79
2022-12-25T01:38:52.830Z,77.91
2022-12-25T01:41:22.253Z,77.72
2022-12-25T01:44:07.583Z,77.80
2022-12-25T01:46:35.442Z,77.91
2022-12-25T01:49:06.136Z,78.02
2022-12-25T01:51:41.257Z,77.79
2022-12-25T01:54:17.300Z,77.57
2022-12-25T01:56:47.501Z,77.55
2022-12-25T01:59:16.968Z,77.21
2022-12-25T02:01:43.996Z,77.10
2022-12-25T02:04:47.824Z,77.37
2022-12-25T02:07:20.144Z,77.56
2022-12-25T02:09:47.610Z,77.54
2022-12-25T02:12:21.058Z,77.49
2022-12-25T02:14:49.692Z,77.80
2022-12-25T02:17:37.740Z,77.93
2022-12-25T02:20:38.369Z,77.89
2022-12-25T02:23:29.389Z,77.95
2022-12-25T02:26:16.092Z,78.27
2022-12-25T02:29:10.109Z,78.24
2022-12-25T02:31:54.945Z,78.17
2022-12-25T02:34:42.352Z,78.21
2022-12-25T02:37:14.548Z,78.34
2022-12-25T02:40:19.527Z,78.56
2022-12-25T02:43:25.057Z,78.49
2022-12-25T02:46:15.653Z,78.28
2022-12-25T02:49:08.965Z,78.12
2022-12-25T02:51:58.709Z,77.97
2022-12-25T02:55:08.470Z,78.01
2022-12-25T02:58:01.192Z,77.98
2022-12-25T03:00:49.016Z,77.82
2022-12-25T03:03:35.618Z,77.53
2022-12-25T03:06:23.570Z,77.45
2022-12-25T03:09:15.340Z,77.25
2022-12-25T03:11:45.044Z,76.89
2022-12-25T03:14:30.018Z,76.79
2022-12-25T03:16:58.870Z,76.61
2022-12-25T03:19:48.107Z,76.83
2022-12-25T03:22:48.433Z,77.05
2022-12-25T03:25:35.653Z,77.28
2022-12-25T03:28:03.544Z,77.45
2022-12-25T03:31:01.994Z,77.41
2022-12-25T03:33:45.178Z,77.88
2022-12-25T03:36:33.188Z,77.56
2022-12-25T03:39:29.671Z,77.67
2022-12-25T03:42:18.719Z,77.88
2022-12-25T03:44:53.787Z,77.50
2022-12-25T03:47:34.524Z,77.65
2022-12-25T03:50:27.071Z,77.67
2022-12-25T03:53:17.110Z,77.66
2022-12-25T03:56:02.943Z,77.50
2022-12-25T03:58:48.213Z,77.31
2022-12-25T04:01:33.667Z,77.55
2022-12-25T04:04:19.078Z,77.65
2022-12-25T04:07:04.513Z,77.63
2022-12-25T04:09:50.264Z,77.81
2022-12-25T04:12:35.672Z,77.36
2022-12-25T04:15:21.137Z,77.41
2022-12-25T04:18:10.671Z,77.43
2022-12-25T04:20:55.708Z,77.69
2022-12-25T04:23:41.018Z,77.66
2022-12-25T04:26:26.286Z,77.77
2022-12-25T04:29:11.599Z,77.83
2022-12-25T04:31:57.356Z,77.75
2022-12-25T04:34:42.301Z,77.58
2022-12-25T04:37:09.040Z,77.78
2022-12-25T04:39:35.674Z,77.72
2022-12-25T04:42:02.315Z,77.80
2022-12-25T04:44:29.059Z,77.62
2022-12-25T04:46:55.752Z,77.84
2022-12-25T04:49:22.529Z,77.72
2022-12-25T04:51:49.124Z,77.60
2022-12-25T04:54:15.971Z,77.80
2022-12-25T04:56:45.814Z,77.82
2022-12-25T04:59:12.864Z,77.87
2022-12-25T05:01:40.269Z,77.63
2022-12-25T05:04:06.997Z,77.83
2022-12-25T05:06:33.700Z,77.57
2022-12-25T05:09:00.338Z,77.67
2022-12-25T05:11:27.081Z,77.85
2022-12-25T05:13:53.653Z,77.92
2022-12-25T05:16:20.906Z,77.88
2022-12-25T05:18:48.993Z,78.04
2022-12-25T05:21:16.076Z,77.93
2022-12-25T05:23:47.838Z,78.02
2022-12-25T05:26:16.640Z,77.93
2022-12-25T05:28:43.411Z,77.85
2022-12-25T05:31:10.755Z,78.07
2022-12-25T05:33:37.481Z,77.78
2022-12-25T05:36:05.390Z,77.62
2022-12-25T05:38:32.575Z,77.58
2022-12-25T05:40:59.310Z,77.77
2022-12-25T05:43:26.836Z,77.83
2022-12-25T05:45:53.854Z,77.77
2022-12-25T05:48:20.515Z,77.81
2022-12-25T05:50:47.124Z,77.65
2022-12-25T05:53:15.153Z,77.74
2022-12-25T05:55:45.583Z,77.97
2022-12-25T05:58:13.059Z,77.90
2022-12-25T06:00:40.394Z,77.93
2022-12-25T06:03:07.165Z,77.74
2022-12-25T06:05:33.877Z,77.86
2022-12-25T06:08:00.489Z,77.87
2022-12-25T06:10:27.153Z,77.57
2022-12-25T06:12:54.398Z,77.57
2022-12-25T06:15:21.036Z,77.44
2022-12-25T06:17:47.624Z,77.51
2022-12-25T06:20:14.306Z,77.93
2022-12-25T06:22:40.944Z,78.09
2022-12-25T06:25:08.479Z,78.35
2022-12-25T06:27:35.242Z,78.51
2022-12-25T06:30:02.425Z,78.75
2022-12-25T06:32:29.025Z,78.71
2022-12-25T06:34:55.705Z,78.81
2022-12-25T06:37:22.277Z,78.89
2022-12-25T06:39:48.940Z,79.11
2022-12-25T06:42:15.556Z,79.01
2022-12-25T06:44:42.258Z,79.35
2022-12-25T06:47:08.868Z,79.76
2022-12-25T06:49:35.589Z,79.63
2022-12-25T06:52:02.543Z,79.72
2022-12-25T06:54:29.351Z,79.73
2022-12-25T06:56:55.870Z,79.72
2022-12-25T06:59:22.646Z,79.76
2022-12-25T07:01:52.237Z,79.62
2022-12-25T07:04:35.177Z,79.73
2022-12-25T07:07:08.340Z,79.78
2022-12-25T07:09:38.036Z,80.09
2022-12-25T07:12:17.276Z,80.26
2022-12-25T07:14:45.078Z,80.25
2022-12-25T07:17:11.699Z,80.31
2022-12-25T07:19:44.503Z,80.31
2022-12-25T07:22:12.744Z,80.39
2022-12-25T07:24:39.495Z,80.50
2022-12-25T07:27:06.549Z,80.74
2022-12-25T07:29:33.792Z,80.78
2022-12-25T07:32:00.533Z,81.11
2022-12-25T07:34:27.270Z,81.50
2022-12-25T07:36:54.621Z,81.43
2022-12-25T07:39:21.461Z,81.63
2022-12-25T07:41:48.139Z,81.71
2022-12-25T07:44:15.600Z,81.57
2022-12-25T07:46:42.817Z,81.80
2022-12-25T07:49:10.687Z,81.90
2022-12-25T07:51:37.427Z,81.98
2022-12-25T07:54:04.588Z,81.97
2022-12-25T07:56:31.310Z,82.03
2022-12-25T07:58:57.916Z,81.96
2022-12-25T08:01:26.515Z,82.01
2022-12-25T08:03:59.507Z,82.37
2022-12-25T08:06:30.214Z,82.45
2022-12-25T08:09:01.719Z,82.41
2022-12-25T08:11:28.539Z,82.39
2022-12-25T08:13:55.173Z,82.13
2022-12-25T08:16:22.235Z,82.07
2022-12-25T08:18:49.068Z,82.04
2022-12-25T08:21:16.145Z,82.13
2022-12-25T08:23:45.321Z,82.14
2022-12-25T08:26:15.424Z,82.03
2022-12-25T08:28:42.161Z,82.17
2022-12-25T08:31:16.748Z,82.10
2022-12-25T08:33:44.138Z,82.16
2022-12-25T08:36:12.620Z,81.99
2022-12-25T08:38:40.342Z,81.75
2022-12-25T08:41:07.570Z,81.49
2022-12-25T08:43:34.456Z,81.50
2022-12-25T08:46:01.361Z,81.81
2022-12-25T08:48:28.251Z,81.70
2022-12-25T08:50:55.118Z,81.38
2022-12-25T08:53:22.545Z,81.30
2022-12-25T08:55:49.636Z,81.28
2022-12-25T08:58:16.358Z,81.02
2022-12-25T09:00:43.002Z,80.78
2022-12-25T09:03:09.688Z,80.81
2022-12-25T09:05:36.947Z,80.82
2022-12-25T09:08:03.969Z,80.77
2022-12-25T09:10:30.833Z,80.62
2022-12-25T09:12:57.619Z,80.35
2022-12-25T09:15:24.242Z,80.31
2022-12-25T09:17:51.016Z,80.28
2022-12-25T09:20:17.617Z,80.41
2022-12-25T09:22:44.413Z,80.29
2022-12-25T09:25:11.711Z,80.19
2022-12-25T09:27:38.714Z,80.15
2022-12-25T09:30:06.611Z,79.95
2022-12-25T09:32:33.306Z,80.29
2022-12-25T09:34:59.887Z,80.09
2022-12-25T09:37:27.443Z,80.11
2022-12-25T09:39:54.086Z,80.04
2022-12-25T09:42:24.793Z,80.23
2022-12-25T09:44:57.127Z,80.19
2022-12-25T09:47:28.432Z,80.05
2022-12-25T09:50:07.084Z,80.19
2022-12-25T09:52:33.891Z,80.29
2022-12-25T09:55:07.831Z,80.62
2022-12-25T09:57:34.432Z,80.45
2022-12-25T10:00:01.094Z,80.39
2022-12-25T10:02:52.747Z,80.52
2022-12-25T10:05:43.782Z,80.72
2022-12-25T10:08:25.889Z,80.98
2022-12-25T10:11:15.481Z,81.14
2022-12-25T10:14:13.894Z,81.24
2022-12-25T10:17:05.275Z,81.20
2022-12-25T10:19:44.921Z,81.08
2022-12-25T10:22:19.978Z,81.03
2022-12-25T10:24:53.582Z,80.82
2022-12-25T10:27:26.234Z,80.94
2022-12-25T10:29:54.297Z,81.19
2022-12-25T10:32:21.959Z,81.43
2022-12-25T10:34:49.213Z,81.19
2022-12-25T10:37:16.873Z,81.31
2022-12-25T10:39:46.697Z,81.21
2022-12-25T10:42:40.391Z,81.00
2022-12-25T10:45:09.460Z,81.10
2022-12-25T10:47:42.326Z,81.07
2022-12-25T10:50:09.412Z,81.12
2022-12-25T10:52:51.464Z,81.10
2022-12-25T10:55:26.574Z,81.13
2022-12-25T10:57:57.243Z,81.38
2022-12-25T11:00:30.058Z,81.44
2022-12-25T11:02:57.503Z,81.64
2022-12-25T11:05:35.709Z,81.92
2022-12-25T11:08:03.676Z,82.27
2022-12-25T11:10:41.672Z,82.29
2022-12-25T11:13:28.765Z,82.23
2022-12-25T11:16:04.565Z,82.29
2022-12-25T11:18:49.568Z,82.23
2022-12-25T11:21:21.659Z,82.45
2022-12-25T11:23:54.957Z,82.69
2022-12-25T11:26:22.013Z,82.72
2022-12-25T11:28:50.758Z,82.85
2022-12-25T11:31:20.632Z,82.68
2022-12-25T11:34:02.846Z,82.66
2022-12-25T11:36:44.176Z,82.82
2022-12-25T11:39:34.932Z,82.96
2022-12-25T11:42:05.716Z,83.11
2022-12-25T11:44:45.158Z,82.99
2022-12-25T11:47:30.214Z,83.05
2022-12-25T11:50:35.069Z,82.92
2022-12-25T11:53:09.348Z,83.16
2022-12-25T11:55:54.060Z,83.40
2022-12-25T11:58:37.058Z,83.45
2022-12-25T12:01:16.565Z,83.16
2022-12-25T12:03:44.381Z,83.07
2022-12-25T12:06:32.292Z,82.98
2022-12-25T12:09:24.017Z,82.96
2022-12-25T12:12:04.716Z,83.23
2022-12-25T12:14:33.977Z,83.11
2022-12-25T12:17:00.727Z,82.79
2022-12-25T12:19:29.973Z,82.84
2022-12-25T12:21:59.731Z,83.04
2022-12-25T12:24:35.527Z,83.03
2022-12-25T12:27:12.865Z,83.18
2022-12-25T12:29:43.635Z,83.35
2022-12-25T12:32:33.480Z,83.09
2022-12-25T12:35:08.591Z,83.31
2022-12-25T12:37:38.425Z,83.22
2022-12-25T12:40:08.492Z,83.24
2022-12-25T12:42:45.739Z,83.03
2022-12-25T12:45:31.440Z,83.12
2022-12-25T12:47:58.771Z,83.31
2022-12-25T12:50:40.360Z,83.28
2022-12-25T12:53:21.733Z,83.46
2022-12-25T12:55:49.164Z,83.68
2022-12-25T12:58:35.072Z,83.60
2022-12-25T13:01:10.713Z,83.94
2022-12-25T13:03:52.232Z,83.92
2022-12-25T13:06:33.703Z,84.71
2022-12-25T13:09:28.291Z,84.60
2022-12-25T13:11:55.140Z,84.47
2022-12-25T13:14:23.830Z,84.71
2022-12-25T13:16:54.342Z,84.44
2022-12-25T13:19:26.931Z,84.38
2022-12-25T13:21:58.676Z,84.47
2022-12-25T13:24:28.212Z,84.32
2022-12-25T13:26:55.115Z,84.21
2022-12-25T13:29:36.538Z,84.25
2022-12-25T13:32:06.602Z,83.79
2022-12-25T13:34:42.076Z,83.89
2022-12-25T13:37:13.119Z,83.89
2022-12-25T13:40:04.571Z,83.67
2022-12-25T13:42:37.105Z,83.52
2022-12-25T13:45:21.549Z,83.33
2022-12-25T13:47:54.862Z,83.57
2022-12-25T13:50:29.991Z,83.59
2022-12-25T13:53:09.139Z,83.97
2022-12-25T13:55:36.308Z,84.03
2022-12-25T13:58:07.103Z,83.80
2022-12-25T14:00:52.539Z,83.93
2022-12-25T14:03:24.173Z,83.95
2022-12-25T14:06:05.414Z,83.64
2022-12-25T14:08:34.838Z,83.64
2022-12-25T14:11:05.028Z,83.75
2022-12-25T14:13:37.306Z,83.79
2022-12-25T14:16:04.841Z,83.64
2022-12-25T14:18:32.740Z,83.45
2022-12-25T14:21:02.789Z,83.48
2022-12-25T14:23:40.780Z,83.50
2022-12-25T14:26:24.685Z,83.48
2022-12-25T14:28:54.432Z,83.63
2022-12-25T14:31:23.354Z,83.31
2022-12-25T14:33:53.313Z,83.53
2022-12-25T14:36:20.656Z,83.52
2022-12-25T14:39:05.213Z,83.29
2022-12-25T14:41:38.284Z,83.20
2022-12-25T14:44:25.928Z,83.14
2022-12-25T14:47:18.972Z,83.27
2022-12-25T14:49:46.438Z,83.59
2022-12-25T14:52:18.918Z,83.49
2022-12-25T14:54:49.056Z,83.14
2022-12-25T14:57:39.792Z,83.11
2022-12-25T15:00:25.326Z,83.21
2022-12-25T15:02:54.943Z,83.24
2022-12-25T15:05:25.223Z,83.17
2022-12-25T15:07:59.139Z,83.05
2022-12-25T15:10:59.054Z,83.00
2022-12-25T15:13:15.077Z,82.94
2022-12-25T15:15:49.987Z,82.74
2022-12-25T15:18:18.385Z,82.77
2022-12-25T15:20:45.348Z,82.81
2022-12-25T15:23:20.033Z,82.69
2022-12-25T15:25:48.017Z,82.56
2022-12-25T15:28:14.849Z,82.11
2022-12-25T15:30:41.821Z,82.39
2022-12-25T15:33:14.803Z,82.13
2022-12-25T15:35:43.740Z,82.52
2022-12-25T15:38:12.046Z,82.57
2022-12-25T15:40:39.278Z,82.62
2022-12-25T15:43:11.341Z,82.69
2022-12-25T15:45:49.104Z,82.75
2022-12-25T15:48:15.793Z,82.72
2022-12-25T15:50:43.596Z,82.38
2022-12-25T15:53:10.810Z,82.62
2022-12-25T15:55:38.264Z,82.55
2022-12-25T15:58:04.905Z,83.00
2022-12-25T16:00:31.638Z,82.76
2022-12-25T16:02:58.621Z,82.59
2022-12-25T16:05:26.657Z,82.90
2022-12-25T16:07:53.291Z,82.70
2022-12-25T16:10:20.241Z,82.86
2022-12-25T16:12:46.868Z,82.97
2022-12-25T16:15:14.915Z,82.70
2022-12-25T16:17:41.631Z,82.79
2022-12-25T16:20:09.103Z,82.61
2022-12-25T16:22:39.365Z,82.46
2022-12-25T16:25:18.598Z,82.13
2022-12-25T16:27:45.952Z,82.59
2022-12-25T16:30:15.990Z,82.67
2022-12-25T16:32:43.585Z,82.67
2022-12-25T16:35:11.483Z,82.69
2022-12-25T16:37:38.538Z,82.55
2022-12-25T16:40:07.781Z,82.49
2022-12-25T16:42:35.496Z,82.56
2022-12-25T16:45:03.211Z,82.71
2022-12-25T16:47:30.039Z,82.40
2022-12-25T16:49:56.625Z,82.22
2022-12-25T16:52:23.314Z,82.28
2022-12-25T16:54:49.851Z,82.28
2022-12-25T16:57:16.564Z,82.06
2022-12-25T16:59:43.098Z,82.19
2022-12-25T17:02:16.148Z,82.16
2022-12-25T17:04:44.386Z,82.23
2022-12-25T17:07:13.087Z,82.09
2022-12-25T17:09:44.134Z,82.08
2022-12-25T17:12:11.234Z,82.24
2022-12-25T17:14:37.885Z,82.12
2022-12-25T17:17:04.821Z,81.98
2022-12-25T17:19:31.647Z,82.23
2022-12-25T17:21:59.279Z,82.22
2022-12-25T17:24:26.792Z,82.32
2022-12-25T17:26:53.688Z,82.34
2022-12-25T17:29:22.631Z,82.49
2022-12-25T17:31:50.887Z,82.61
2022-12-25T17:34:17.934Z,82.37
2022-12-25T17:36:44.847Z,82.90
2022-12-25T17:39:12.370Z,82.67
2022-12-25T17:41:39.059Z,82.55
2022-12-25T17:44:05.776Z,82.45
2022-12-25T17:46:32.598Z,82.57
2022-12-25T17:49:00.769Z,82.37
2022-12-25T17:51:29.824Z,82.49
2022-12-25T17:53:59.812Z,82.48
2022-12-25T17:56:26.641Z,82.53
2022-12-25T17:58:56.565Z,82.45
2022-12-25T18:01:24.811Z,82.46
2022-12-25T18:03:52.136Z,82.40
2022-12-25T18:06:21.487Z,82.32
2022-12-25T18:08:49.479Z,82.27
2022-12-25T18:11:19.715Z,82.40
2022-12-25T18:13:49.284Z,82.57
2022-12-25T18:16:17.334Z,82.57
2022-12-25T18:18:51.404Z,82.62
2022-12-25T18:21:21.168Z,82.78
2022-12-25T18:23:48.399Z,82.67
2022-12-25T18:26:15.274Z,82.41
2022-12-25T18:28:43.436Z,82.47
2022-12-25T18:31:13.086Z,82.39
2022-12-25T18:33:40.201Z,82.61
2022-12-25T18:36:11.382Z,82.60
2022-12-25T18:38:37.977Z,82.35
2022-12-25T18:41:06.835Z,82.47
2022-12-25T18:43:53.807Z,82.34
2022-12-25T18:46:23.193Z,82.46
2022-12-25T18:48:49.928Z,82.38
2022-12-25T18:51:17.167Z,82.21
2022-12-25T18:53:44.014Z,82.26
2022-12-25T18:56:16.789Z,82.19
2022-12-25T18:58:44.358Z,82.36
2022-12-25T19:01:16.855Z,82.64
2022-12-25T19:03:44.745Z,82.72
2022-12-25T19:06:19.072Z,82.77
2022-12-25T19:08:45.986Z,82.96
2022-12-25T19:11:13.135Z,83.18
2022-12-25T19:13:40.140Z,83.41
2022-12-25T19:16:07.030Z,83.15
2022-12-25T19:18:33.827Z,83.45
2022-12-25T19:21:02.309Z,83.34
2022-12-25T19:23:29.055Z,83.36
2022-12-25T19:25:55.786Z,83.45
2022-12-25T19:28:24.400Z,83.56
2022-12-25T19:30:53.312Z,83.50
2022-12-25T19:33:21.488Z,83.58
2022-12-25T19:35:48.480Z,83.63
2022-12-25T19:38:15.728Z,83.28
2022-12-25T19:40:59.522Z,83.25
2022-12-25T19:43:32.756Z,83.27
2022-12-25T19:46:01.196Z,83.24
2022-12-25T19:48:30.653Z,83.49
2022-12-25T19:50:57.830Z,83.46
2022-12-25T19:53:25.159Z,83.16
2022-12-25T19:55:53.003Z,83.13
2022-12-25T19:58:21.421Z,83.05
2022-12-25T20:01:04.781Z,83.03
2022-12-25T20:03:32.603Z,83.03
2022-12-25T20:05:59.605Z,83.07
2022-12-25T20:08:26.367Z,83.23
2022-12-25T20:10:52.992Z,82.95
2022-12-25T20:13:19.894Z,83.04
2022-12-25T20:15:47.486Z,82.95
2022-12-25T20:18:14.152Z,83.08
2022-12-25T20:20:40.877Z,82.92
2022-12-25T20:23:07.536Z,82.97
2022-12-25T20:25:38.867Z,83.06
2022-12-25T20:28:05.701Z,82.95
2022-12-25T20:30:36.971Z,82.91
2022-12-25T20:33:03.693Z,82.89
2022-12-25T20:35:30.336Z,83.05
2022-12-25T20:37:57.061Z,82.94
2022-12-25T20:40:24.014Z,83.08
2022-12-25T20:42:53.725Z,82.89
2022-12-25T20:45:20.359Z,82.90
2022-12-25T20:47:47.099Z,82.92
2022-12-25T20:50:13.729Z,82.94
2022-12-25T20:52:40.285Z,82.96
2022-12-25T20:55:07.435Z,83.02
2022-12-25T20:57:34.082Z,82.98
2022-12-25T21:00:00.784Z,82.83
2022-12-25T21:02:34.793Z,82.90
2022-12-25T21:05:06.379Z,82.66
2022-12-25T21:07:33.597Z,82.84
2022-12-25T21:10:00.311Z,82.66
2022-12-25T21:12:27.265Z,82.62
2022-12-25T21:14:53.947Z,82.78
2022-12-25T21:17:20.662Z,82.82
2022-12-25T21:19:47.399Z,82.95
2022-12-25T21:22:14.333Z,83.25
2022-12-25T21:24:40.985Z,83.11
2022-12-25T21:27:08.747Z,83.24
2022-12-25T21:29:35.423Z,83.11
2022-12-25T21:32:20.451Z,83.19
2022-12-25T21:34:47.014Z,83.33
2022-12-25T21:37:13.622Z,84.15
2022-12-25T21:39:40.359Z,83.81
2022-12-25T21:42:07.307Z,84.19
2022-12-25T21:44:34.045Z,84.12
2022-12-25T21:47:00.625Z,84.12
2022-12-25T21:49:45.757Z,84.29
2022-12-25T21:52:12.389Z,84.42
2022-12-25T21:54:39.022Z,84.42
2022-12-25T21:57:05.596Z,84.41
2022-12-25T21:59:32.183Z,84.64
2022-12-25T22:01:59.057Z,84.65
2022-12-25T22:04:26.389Z,84.54
2022-12-25T22:07:11.706Z,84.56
2022-12-25T22:09:38.521Z,84.35
2022-12-25T22:12:28.597Z,84.28
2022-12-25T22:15:08.911Z,84.25
2022-12-25T22:17:56.367Z,84.65
2022-12-25T22:20:31.035Z,84.43
2022-12-25T22:22:57.936Z,84.73
2022-12-25T22:25:25.395Z,84.73
2022-12-25T22:27:52.640Z,84.98
2022-12-25T22:30:24.814Z,84.78
2022-12-25T22:32:52.022Z,84.88
2022-12-25T22:35:19.474Z,84.75
2022-12-25T22:37:47.542Z,84.73
2022-12-25T22:40:15.889Z,84.64
2022-12-25T22:42:42.531Z,84.40
2022-12-25T22:45:10.387Z,84.46
2022-12-25T22:47:37.516Z,84.74
2022-12-25T22:50:05.605Z,84.88
2022-12-25T22:52:32.469Z,85.19
2022-12-25T22:54:59.176Z,85.04
2022-12-25T22:57:26.018Z,84.96
2022-12-25T22:59:53.162Z,85.03
2022-12-25T23:02:20.625Z,84.96
2022-12-25T23:04:47.563Z,85.07
2022-12-25T23:07:15.188Z,84.81
2022-12-25T23:09:43.000Z,84.93
2022-12-25T23:12:33.496Z,84.68
2022-12-25T23:15:00.140Z,84.75
2022-12-25T23:17:45.481Z,85.23
2022-12-25T23:20:33.251Z,85.03
2022-12-25T23:23:19.965Z,85.38
2022-12-25T23:26:05.298Z,85.45
2022-12-25T23:28:50.887Z,85.41
2022-12-25T23:31:18.030Z,85.31
2022-12-25T23:33:44.777Z,85.37
2022-12-25T23:36:11.458Z,85.06
2022-12-25T23:38:38.148Z,85.12
2022-12-25T23:41:05.481Z,84.99
2022-12-25T23:43:32.165Z,84.71
2022-12-25T23:45:59.096Z,84.85
2022-12-25T23:48:25.983Z,84.69
2022-12-25T23:50:52.668Z,84.70
2022-12-25T23:53:19.253Z,84.86
2022-12-25T23:55:50.131Z,84.97
2022-12-25T23:58:21.956Z,84.99
